sensor_id;sensor_type;location;lat;lon;timestamp;pressure;altitude;pressure_sealevel;temperature;humidity
65013;BME280;51715;39.432;-77.518;2023-04-15T00:00:40;99020.58;;;26.01;35.17
65013;BME280;51715;39.432;-77.518;2023-04-15T00:03:08;99021.38;;;26.04;35.43
65013;BME280;51715;39.432;-77.518;2023-04-15T00:05:37;99022.09;;;26.17;34.79
65013;BME280;51715;39.432;-77.518;2023-04-15T00:08:10;99023.81;;;26.03;35.17
65013;BME280;51715;39.432;-77.518;2023-04-15T00:10:39;99022.74;;;26.21;34.91
65013;BME280;51715;39.432;-77.518;2023-04-15T00:13:09;99025.21;;;26.22;35.01
65013;BME280;51715;39.432;-77.518;2023-04-15T00:15:37;99024.98;;;26.64;34.52
65013;BME280;51715;39.432;-77.518;2023-04-15T00:18:05;99031.55;;;26.55;35.16
65013;BME280;51715;39.432;-77.518;2023-04-15T00:20:35;99026.16;;;26.34;34.71
65013;BME280;51715;39.432;-77.518;2023-04-15T00:23:02;99027.32;;;25.97;35.09
65013;BME280;51715;39.432;-77.518;2023-04-15T00:25:31;99024.27;;;26.36;34.92
65013;BME280;51715;39.432;-77.518;2023-04-15T00:28:00;99023.78;;;27.08;34.27
65013;BME280;51715;39.432;-77.518;2023-04-15T00:30:28;99022.76;;;27.26;34.02
65013;BME280;51715;39.432;-77.518;2023-04-15T00:32:57;99022.84;;;27.09;33.55
65013;BME280;51715;39.432;-77.518;2023-04-15T00:35:27;99022.81;;;27.20;33.47
65013;BME280;51715;39.432;-77.518;2023-04-15T00:37:56;99020.69;;;27.23;33.46
65013;BME280;51715;39.432;-77.518;2023-04-15T00:40:25;99016.71;;;27.32;33.08
65013;BME280;51715;39.432;-77.518;2023-04-15T00:42:53;99022.37;;;26.76;34.05
65013;BME280;51715;39.432;-77.518;2023-04-15T00:45:22;99022.01;;;27.14;33.33
65013;BME280;51715;39.432;-77.518;2023-04-15T00:47:51;99019.93;;;27.04;33.43
65013;BME280;51715;39.432;-77.518;2023-04-15T00:50:19;99022.21;;;27.12;33.29
65013;BME280;51715;39.432;-77.518;2023-04-15T00:52:47;99021.69;;;26.95;33.58
65013;BME280;51715;39.432;-77.518;2023-04-15T00:55:15;99021.92;;;26.88;34.12
65013;BME280;51715;39.432;-77.518;2023-04-15T00:57:44;99022.87;;;26.83;33.81
65013;BME280;51715;39.432;-77.518;2023-04-15T01:00:14;99023.87;;;27.25;34.12
65013;BME280;51715;39.432;-77.518;2023-04-15T01:02:42;99024.78;;;26.91;34.00
65013;BME280;51715;39.432;-77.518;2023-04-15T01:05:11;99026.64;;;26.90;34.03
65013;BME280;51715;39.432;-77.518;2023-04-15T01:07:40;99030.50;;;26.78;34.53
65013;BME280;51715;39.432;-77.518;2023-04-15T01:10:09;99036.95;;;26.63;34.53
65013;BME280;51715;39.432;-77.518;2023-04-15T01:12:37;99040.95;;;26.97;34.71
65013;BME280;51715;39.432;-77.518;2023-04-15T01:15:07;99048.24;;;26.42;34.86
65013;BME280;51715;39.432;-77.518;2023-04-15T01:17:38;99052.78;;;26.02;36.04
65013;BME280;51715;39.432;-77.518;2023-04-15T01:20:09;99059.05;;;26.25;35.62
65013;BME280;51715;39.432;-77.518;2023-04-15T01:22:38;99069.77;;;25.55;36.99
65013;BME280;51715;39.432;-77.518;2023-04-15T01:25:11;99075.68;;;25.75;36.70
65013;BME280;51715;39.432;-77.518;2023-04-15T01:27:41;99076.40;;;25.77;36.85
65013;BME280;51715;39.432;-77.518;2023-04-15T01:30:11;99078.61;;;25.87;36.84
65013;BME280;51715;39.432;-77.518;2023-04-15T01:32:39;99078.56;;;25.99;36.06
65013;BME280;51715;39.432;-77.518;2023-04-15T01:35:08;99076.30;;;25.73;36.98
65013;BME280;51715;39.432;-77.518;2023-04-15T01:37:38;99078.31;;;25.18;37.92
65013;BME280;51715;39.432;-77.518;2023-04-15T01:40:08;99076.00;;;26.06;36.62
65013;BME280;51715;39.432;-77.518;2023-04-15T01:42:38;99077.14;;;25.51;37.35
65013;BME280;51715;39.432;-77.518;2023-04-15T01:45:08;99078.81;;;25.79;37.18
65013;BME280;51715;39.432;-77.518;2023-04-15T01:47:36;99079.30;;;26.01;36.88
65013;BME280;51715;39.432;-77.518;2023-04-15T01:50:06;99079.68;;;26.01;36.38
65013;BME280;51715;39.432;-77.518;2023-04-15T01:52:34;99088.24;;;26.17;36.47
65013;BME280;51715;39.432;-77.518;2023-04-15T01:55:02;99088.60;;;25.85;36.16
65013;BME280;51715;39.432;-77.518;2023-04-15T01:57:31;99090.02;;;26.47;36.33
65013;BME280;51715;39.432;-77.518;2023-04-15T01:59:59;99092.61;;;26.18;36.44
65013;BME280;51715;39.432;-77.518;2023-04-15T02:02:28;99096.77;;;26.12;36.16
65013;BME280;51715;39.432;-77.518;2023-04-15T02:04:57;99099.97;;;25.81;37.04
65013;BME280;51715;39.432;-77.518;2023-04-15T02:07:26;99103.71;;;25.58;37.00
65013;BME280;51715;39.432;-77.518;2023-04-15T02:09:55;99109.80;;;25.24;37.77
65013;BME280;51715;39.432;-77.518;2023-04-15T02:12:24;99110.90;;;25.63;37.20
65013;BME280;51715;39.432;-77.518;2023-04-15T02:14:52;99112.57;;;25.89;36.90
65013;BME280;51715;39.432;-77.518;2023-04-15T02:17:20;99115.43;;;25.01;38.04
65013;BME280;51715;39.432;-77.518;2023-04-15T02:19:49;99117.61;;;25.51;36.85
65013;BME280;51715;39.432;-77.518;2023-04-15T02:22:17;99119.25;;;25.71;36.61
65013;BME280;51715;39.432;-77.518;2023-04-15T02:24:46;99120.26;;;25.14;37.31
65013;BME280;51715;39.432;-77.518;2023-04-15T02:27:16;99119.54;;;25.58;36.72
65013;BME280;51715;39.432;-77.518;2023-04-15T02:29:45;99124.55;;;25.45;37.19
65013;BME280;51715;39.432;-77.518;2023-04-15T02:32:14;99127.18;;;25.54;36.74
65013;BME280;51715;39.432;-77.518;2023-04-15T02:34:44;99131.41;;;25.23;37.97
65013;BME280;51715;39.432;-77.518;2023-04-15T02:37:13;99132.75;;;25.14;37.83
65013;BME280;51715;39.432;-77.518;2023-04-15T02:39:41;99135.21;;;25.19;37.32
65013;BME280;51715;39.432;-77.518;2023-04-15T02:42:09;99136.69;;;24.87;38.11
65013;BME280;51715;39.432;-77.518;2023-04-15T02:44:38;99134.66;;;24.81;38.17
65013;BME280;51715;39.432;-77.518;2023-04-15T02:47:07;99137.54;;;25.04;37.86
65013;BME280;51715;39.432;-77.518;2023-04-15T02:49:36;99139.05;;;24.19;39.55
65013;BME280;51715;39.432;-77.518;2023-04-15T02:52:04;99140.19;;;24.47;39.47
65013;BME280;51715;39.432;-77.518;2023-04-15T02:54:33;99137.47;;;23.96;39.21
65013;BME280;51715;39.432;-77.518;2023-04-15T02:57:02;99134.63;;;25.01;38.27
65013;BME280;51715;39.432;-77.518;2023-04-15T02:59:30;99140.14;;;24.63;38.58
65013;BME280;51715;39.432;-77.518;2023-04-15T03:01:58;99138.90;;;24.39;38.65
65013;BME280;51715;39.432;-77.518;2023-04-15T03:04:27;99134.33;;;23.80;39.57
65013;BME280;51715;39.432;-77.518;2023-04-15T03:06:55;99132.15;;;24.29;38.94
65013;BME280;51715;39.432;-77.518;2023-04-15T03:09:23;99131.59;;;24.69;38.27
65013;BME280;51715;39.432;-77.518;2023-04-15T03:11:52;99130.00;;;24.77;38.40
65013;BME280;51715;39.432;-77.518;2023-04-15T03:14:20;99137.37;;;24.55;38.70
65013;BME280;51715;39.432;-77.518;2023-04-15T03:16:48;99138.86;;;24.89;38.79
65013;BME280;51715;39.432;-77.518;2023-04-15T03:19:17;99137.68;;;24.40;38.72
65013;BME280;51715;39.432;-77.518;2023-04-15T03:21:46;99140.22;;;24.20;39.50
65013;BME280;51715;39.432;-77.518;2023-04-15T03:24:15;99136.79;;;24.74;38.88
65013;BME280;51715;39.432;-77.518;2023-04-15T03:26:43;99137.61;;;23.70;40.43
65013;BME280;51715;39.432;-77.518;2023-04-15T03:29:12;99134.48;;;24.21;39.78
65013;BME280;51715;39.432;-77.518;2023-04-15T03:31:41;99131.48;;;24.43;39.17
65013;BME280;51715;39.432;-77.518;2023-04-15T03:34:10;99135.29;;;24.35;39.30
65013;BME280;51715;39.432;-77.518;2023-04-15T03:36:38;99131.68;;;24.10;39.29
65013;BME280;51715;39.432;-77.518;2023-04-15T03:39:06;99128.41;;;24.04;40.27
65013;BME280;51715;39.432;-77.518;2023-04-15T03:41:34;99125.83;;;23.56;40.45
65013;BME280;51715;39.432;-77.518;2023-04-15T03:44:03;99124.93;;;23.85;40.32
65013;BME280;51715;39.432;-77.518;2023-04-15T03:46:32;99122.49;;;23.79;40.81
65013;BME280;51715;39.432;-77.518;2023-04-15T03:49:01;99123.16;;;23.93;40.81
65013;BME280;51715;39.432;-77.518;2023-04-15T03:51:29;99125.71;;;23.09;42.64
65013;BME280;51715;39.432;-77.518;2023-04-15T03:53:57;99129.50;;;23.16;42.83
65013;BME280;51715;39.432;-77.518;2023-04-15T03:56:28;99129.19;;;23.44;42.75
65013;BME280;51715;39.432;-77.518;2023-04-15T03:58:56;99133.58;;;23.41;42.06
65013;BME280;51715;39.432;-77.518;2023-04-15T04:04:09;99125.63;;;23.50;41.19
65013;BME280;51715;39.432;-77.518;2023-04-15T04:06:37;99120.20;;;23.08;41.89
65013;BME280;51715;39.432;-77.518;2023-04-15T04:09:05;99120.43;;;22.84;43.93
65013;BME280;51715;39.432;-77.518;2023-04-15T04:11:33;99119.51;;;22.91;43.03
65013;BME280;51715;39.432;-77.518;2023-04-15T04:14:02;99119.96;;;23.56;43.31
65013;BME280;51715;39.432;-77.518;2023-04-15T04:16:31;99123.91;;;22.45;45.14
65013;BME280;51715;39.432;-77.518;2023-04-15T04:18:59;99124.21;;;22.65;44.84
65013;BME280;51715;39.432;-77.518;2023-04-15T04:21:27;99115.03;;;23.10;44.05
65013;BME280;51715;39.432;-77.518;2023-04-15T04:23:56;99114.20;;;22.62;44.73
65013;BME280;51715;39.432;-77.518;2023-04-15T04:26:24;99118.49;;;22.65;45.25
65013;BME280;51715;39.432;-77.518;2023-04-15T04:28:52;99116.30;;;22.72;45.37
65013;BME280;51715;39.432;-77.518;2023-04-15T04:31:21;99107.87;;;22.25;46.27
65013;BME280;51715;39.432;-77.518;2023-04-15T04:33:49;99114.23;;;22.74;45.06
65013;BME280;51715;39.432;-77.518;2023-04-15T04:36:17;99120.06;;;22.58;44.97
65013;BME280;51715;39.432;-77.518;2023-04-15T04:38:45;99109.98;;;22.92;44.31
65013;BME280;51715;39.432;-77.518;2023-04-15T04:41:13;99107.66;;;23.27;43.83
65013;BME280;51715;39.432;-77.518;2023-04-15T04:43:41;99108.76;;;23.00;44.27
65013;BME280;51715;39.432;-77.518;2023-04-15T04:46:09;99117.33;;;22.66;44.15
65013;BME280;51715;39.432;-77.518;2023-04-15T04:48:38;99122.41;;;23.06;44.02
65013;BME280;51715;39.432;-77.518;2023-04-15T04:51:06;99122.01;;;23.14;43.90
65013;BME280;51715;39.432;-77.518;2023-04-15T04:53:34;99122.10;;;23.49;43.76
65013;BME280;51715;39.432;-77.518;2023-04-15T04:56:03;99121.46;;;22.99;44.48
65013;BME280;51715;39.432;-77.518;2023-04-15T04:58:31;99108.37;;;23.34;43.83
65013;BME280;51715;39.432;-77.518;2023-04-15T05:01:00;99107.03;;;23.20;44.10
65013;BME280;51715;39.432;-77.518;2023-04-15T05:03:28;99118.12;;;23.11;44.01
65013;BME280;51715;39.432;-77.518;2023-04-15T05:05:56;99108.83;;;23.18;44.35
65013;BME280;51715;39.432;-77.518;2023-04-15T05:08:25;99104.97;;;23.07;44.38
65013;BME280;51715;39.432;-77.518;2023-04-15T05:10:53;99107.61;;;23.05;44.30
65013;BME280;51715;39.432;-77.518;2023-04-15T05:13:21;99103.07;;;23.10;44.72
65013;BME280;51715;39.432;-77.518;2023-04-15T05:15:49;99101.49;;;23.43;43.94
65013;BME280;51715;39.432;-77.518;2023-04-15T05:18:18;99105.61;;;23.16;43.95
65013;BME280;51715;39.432;-77.518;2023-04-15T05:20:45;99105.10;;;23.26;43.38
65013;BME280;51715;39.432;-77.518;2023-04-15T05:23:14;99103.44;;;23.36;44.10
65013;BME280;51715;39.432;-77.518;2023-04-15T05:25:43;99103.07;;;22.98;44.48
65013;BME280;51715;39.432;-77.518;2023-04-15T05:28:11;99108.23;;;22.68;44.94
65013;BME280;51715;39.432;-77.518;2023-04-15T05:30:40;99111.22;;;22.63;45.15
65013;BME280;51715;39.432;-77.518;2023-04-15T05:33:09;99112.12;;;22.58;44.87
65013;BME280;51715;39.432;-77.518;2023-04-15T05:35:36;99115.67;;;22.56;45.61
65013;BME280;51715;39.432;-77.518;2023-04-15T05:38:05;99112.16;;;22.86;44.77
65013;BME280;51715;39.432;-77.518;2023-04-15T05:40:33;99105.13;;;22.92;44.71
65013;BME280;51715;39.432;-77.518;2023-04-15T05:43:01;99104.40;;;23.05;45.23
65013;BME280;51715;39.432;-77.518;2023-04-15T05:45:29;99097.83;;;22.65;45.30
65013;BME280;51715;39.432;-77.518;2023-04-15T05:47:57;99092.00;;;22.97;45.06
65013;BME280;51715;39.432;-77.518;2023-04-15T05:50:25;99099.47;;;22.49;46.05
65013;BME280;51715;39.432;-77.518;2023-04-15T05:52:52;99100.49;;;22.80;45.55
65013;BME280;51715;39.432;-77.518;2023-04-15T05:55:20;99102.82;;;22.95;45.44
65013;BME280;51715;39.432;-77.518;2023-04-15T05:57:48;99101.25;;;23.11;45.06
65013;BME280;51715;39.432;-77.518;2023-04-15T06:00:16;99102.07;;;23.23;44.89
65013;BME280;51715;39.432;-77.518;2023-04-15T06:02:45;99105.09;;;22.73;45.26
65013;BME280;51715;39.432;-77.518;2023-04-15T06:05:13;99106.03;;;23.00;45.29
65013;BME280;51715;39.432;-77.518;2023-04-15T06:07:41;99107.87;;;23.13;45.18
65013;BME280;51715;39.432;-77.518;2023-04-15T06:10:10;99108.66;;;23.13;44.72
65013;BME280;51715;39.432;-77.518;2023-04-15T06:12:38;99107.40;;;22.87;45.64
65013;BME280;51715;39.432;-77.518;2023-04-15T06:15:07;99107.44;;;22.89;45.65
65013;BME280;51715;39.432;-77.518;2023-04-15T06:17:36;99103.19;;;23.13;45.19
65013;BME280;51715;39.432;-77.518;2023-04-15T06:20:04;99103.25;;;22.89;45.25
65013;BME280;51715;39.432;-77.518;2023-04-15T06:22:33;99100.31;;;23.28;44.92
65013;BME280;51715;39.432;-77.518;2023-04-15T06:25:02;99095.58;;;23.17;44.47
65013;BME280;51715;39.432;-77.518;2023-04-15T06:27:30;99093.43;;;23.01;45.43
65013;BME280;51715;39.432;-77.518;2023-04-15T06:29:58;99094.68;;;22.97;45.82
65013;BME280;51715;39.432;-77.518;2023-04-15T06:32:26;99089.70;;;23.05;45.68
65013;BME280;51715;39.432;-77.518;2023-04-15T06:34:54;99089.72;;;23.26;45.27
65013;BME280;51715;39.432;-77.518;2023-04-15T06:37:23;99085.90;;;23.29;45.16
65013;BME280;51715;39.432;-77.518;2023-04-15T06:39:52;99084.32;;;23.20;44.99
65013;BME280;51715;39.432;-77.518;2023-04-15T06:42:21;99078.35;;;23.02;44.96
65013;BME280;51715;39.432;-77.518;2023-04-15T06:44:49;99072.20;;;23.50;44.62
65013;BME280;51715;39.432;-77.518;2023-04-15T06:47:17;99065.50;;;23.45;44.28
65013;BME280;51715;39.432;-77.518;2023-04-15T06:49:45;99065.80;;;23.64;43.91
65013;BME280;51715;39.432;-77.518;2023-04-15T06:52:13;99061.71;;;23.77;43.94
65013;BME280;51715;39.432;-77.518;2023-04-15T06:54:42;99056.99;;;23.74;43.91
65013;BME280;51715;39.432;-77.518;2023-04-15T06:57:09;99051.04;;;23.70;44.12
65013;BME280;51715;39.432;-77.518;2023-04-15T06:59:37;99045.93;;;23.85;43.87
65013;BME280;51715;39.432;-77.518;2023-04-15T07:02:08;99039.66;;;23.99;43.29
65013;BME280;51715;39.432;-77.518;2023-04-15T07:04:39;99033.32;;;23.75;43.81
65013;BME280;51715;39.432;-77.518;2023-04-15T07:07:07;99029.66;;;23.98;43.62
65013;BME280;51715;39.432;-77.518;2023-04-15T07:09:36;99029.75;;;23.65;43.91
65013;BME280;51715;39.432;-77.518;2023-04-15T07:12:04;99028.70;;;24.04;44.05
65013;BME280;51715;39.432;-77.518;2023-04-15T07:14:32;99026.37;;;23.74;43.81
65013;BME280;51715;39.432;-77.518;2023-04-15T07:17:00;99026.83;;;23.54;44.16
65013;BME280;51715;39.432;-77.518;2023-04-15T07:19:28;99030.81;;;23.60;44.49
65013;BME280;51715;39.432;-77.518;2023-04-15T07:21:57;99033.78;;;23.34;44.34
65013;BME280;51715;39.432;-77.518;2023-04-15T07:24:25;99034.70;;;23.33;44.18
65013;BME280;51715;39.432;-77.518;2023-04-15T07:26:55;99033.85;;;23.25;44.55
65013;BME280;51715;39.432;-77.518;2023-04-15T07:29:24;99033.10;;;23.36;44.49
65013;BME280;51715;39.432;-77.518;2023-04-15T07:31:52;99028.46;;;23.44;44.40
65013;BME280;51715;39.432;-77.518;2023-04-15T07:34:20;99026.79;;;23.27;44.48
65013;BME280;51715;39.432;-77.518;2023-04-15T07:36:49;99023.57;;;23.62;44.43
65013;BME280;51715;39.432;-77.518;2023-04-15T07:39:18;99020.94;;;23.50;44.22
65013;BME280;51715;39.432;-77.518;2023-04-15T07:41:46;99020.30;;;23.77;43.91
65013;BME280;51715;39.432;-77.518;2023-04-15T07:44:14;99017.67;;;23.81;43.94
65013;BME280;51715;39.432;-77.518;2023-04-15T07:46:43;99022.91;;;23.64;44.33
65013;BME280;51715;39.432;-77.518;2023-04-15T07:49:11;99022.29;;;23.44;44.71
65013;BME280;51715;39.432;-77.518;2023-04-15T07:51:40;99024.49;;;23.44;44.18
65013;BME280;51715;39.432;-77.518;2023-04-15T07:54:08;99020.63;;;23.67;44.46
65013;BME280;51715;39.432;-77.518;2023-04-15T07:56:36;99027.15;;;23.70;44.64
65013;BME280;51715;39.432;-77.518;2023-04-15T07:59:05;99029.60;;;23.39;45.08
65013;BME280;51715;39.432;-77.518;2023-04-15T08:01:33;99030.58;;;23.88;44.62
65013;BME280;51715;39.432;-77.518;2023-04-15T08:04:02;99035.28;;;23.63;44.89
65013;BME280;51715;39.432;-77.518;2023-04-15T08:06:30;99033.40;;;23.62;44.82
65013;BME280;51715;39.432;-77.518;2023-04-15T08:08:59;99031.92;;;23.66;44.78
65013;BME280;51715;39.432;-77.518;2023-04-15T08:11:27;99034.20;;;23.76;44.72
65013;BME280;51715;39.432;-77.518;2023-04-15T08:13:57;99036.53;;;23.59;44.63
65013;BME280;51715;39.432;-77.518;2023-04-15T08:16:25;99032.58;;;23.90;44.28
65013;BME280;51715;39.432;-77.518;2023-04-15T08:18:54;99031.53;;;23.75;44.19
65013;BME280;51715;39.432;-77.518;2023-04-15T08:21:23;99031.90;;;23.53;44.57
65013;BME280;51715;39.432;-77.518;2023-04-15T08:23:52;99034.40;;;23.83;44.52
65013;BME280;51715;39.432;-77.518;2023-04-15T08:26:21;99036.20;;;23.96;44.26
65013;BME280;51715;39.432;-77.518;2023-04-15T08:28:49;99035.09;;;23.75;44.28
65013;BME280;51715;39.432;-77.518;2023-04-15T08:31:18;99041.94;;;23.98;44.36
65013;BME280;51715;39.432;-77.518;2023-04-15T08:33:47;99049.23;;;23.72;44.70
65013;BME280;51715;39.432;-77.518;2023-04-15T08:36:15;99051.67;;;23.67;44.56
65013;BME280;51715;39.432;-77.518;2023-04-15T08:38:44;99050.80;;;23.64;44.66
65013;BME280;51715;39.432;-77.518;2023-04-15T08:41:21;99044.40;;;23.64;44.53
65013;BME280;51715;39.432;-77.518;2023-04-15T08:43:53;99041.66;;;23.31;45.19
65013;BME280;51715;39.432;-77.518;2023-04-15T08:46:23;99042.40;;;23.24;45.81
65013;BME280;51715;39.432;-77.518;2023-04-15T08:48:52;99042.36;;;23.11;45.63
65013;BME280;51715;39.432;-77.518;2023-04-15T08:51:23;99035.83;;;23.19;45.30
65013;BME280;51715;39.432;-77.518;2023-04-15T08:53:53;99032.94;;;22.66;47.85
65013;BME280;51715;39.432;-77.518;2023-04-15T08:56:24;99030.25;;;22.27;47.68
65013;BME280;51715;39.432;-77.518;2023-04-15T08:58:53;99040.08;;;22.08;49.09
65013;BME280;51715;39.432;-77.518;2023-04-15T09:01:22;99042.47;;;22.84;47.66
65013;BME280;51715;39.432;-77.518;2023-04-15T09:03:52;99041.23;;;22.94;46.95
65013;BME280;51715;39.432;-77.518;2023-04-15T09:06:20;99037.74;;;23.29;46.38
65013;BME280;51715;39.432;-77.518;2023-04-15T09:08:49;99033.65;;;23.25;45.85
65013;BME280;51715;39.432;-77.518;2023-04-15T09:11:18;99044.83;;;23.07;46.25
65013;BME280;51715;39.432;-77.518;2023-04-15T09:13:49;99059.34;;;23.20;46.09
65013;BME280;51715;39.432;-77.518;2023-04-15T09:16:17;99062.04;;;23.41;46.01
65013;BME280;51715;39.432;-77.518;2023-04-15T09:18:46;99056.84;;;23.21;45.90
65013;BME280;51715;39.432;-77.518;2023-04-15T09:21:16;99058.28;;;23.04;45.99
65013;BME280;51715;39.432;-77.518;2023-04-15T09:23:55;99057.38;;;23.34;46.42
65013;BME280;51715;39.432;-77.518;2023-04-15T09:26:33;99056.93;;;22.79;47.06
65013;BME280;51715;39.432;-77.518;2023-04-15T09:29:04;99060.80;;;23.01;47.22
65013;BME280;51715;39.432;-77.518;2023-04-15T09:31:33;99066.44;;;22.89;47.52
65013;BME280;51715;39.432;-77.518;2023-04-15T09:34:01;99071.90;;;22.96;47.54
65013;BME280;51715;39.432;-77.518;2023-04-15T09:36:34;99072.22;;;23.00;47.38
65013;BME280;51715;39.432;-77.518;2023-04-15T09:39:03;99068.61;;;22.75;47.59
65013;BME280;51715;39.432;-77.518;2023-04-15T09:41:31;99063.86;;;22.96;47.54
65013;BME280;51715;39.432;-77.518;2023-04-15T09:43:59;99065.38;;;22.85;47.90
65013;BME280;51715;39.432;-77.518;2023-04-15T09:46:44;99062.26;;;22.77;48.08
65013;BME280;51715;39.432;-77.518;2023-04-15T09:49:12;99066.51;;;22.85;48.10
65013;BME280;51715;39.432;-77.518;2023-04-15T09:51:40;99067.11;;;22.85;48.27
65013;BME280;51715;39.432;-77.518;2023-04-15T09:54:08;99067.47;;;22.73;48.24
65013;BME280;51715;39.432;-77.518;2023-04-15T09:56:38;99076.50;;;22.50;49.21
65013;BME280;51715;39.432;-77.518;2023-04-15T09:59:08;99076.13;;;22.99;48.97
65013;BME280;51715;39.432;-77.518;2023-04-15T10:01:36;99067.40;;;22.67;48.86
65013;BME280;51715;39.432;-77.518;2023-04-15T10:04:06;99069.52;;;22.68;49.31
65013;BME280;51715;39.432;-77.518;2023-04-15T10:06:35;99073.44;;;22.27;49.67
65013;BME280;51715;39.432;-77.518;2023-04-15T10:09:05;99075.64;;;22.60;49.40
65013;BME280;51715;39.432;-77.518;2023-04-15T10:11:34;99073.50;;;22.76;49.34
65013;BME280;51715;39.432;-77.518;2023-04-15T10:14:04;99079.97;;;22.61;49.28
65013;BME280;51715;39.432;-77.518;2023-04-15T10:16:36;99083.41;;;22.67;48.94
65013;BME280;51715;39.432;-77.518;2023-04-15T10:19:08;99089.25;;;22.61;49.29
65013;BME280;51715;39.432;-77.518;2023-04-15T10:21:38;99090.10;;;22.64;48.84
65013;BME280;51715;39.432;-77.518;2023-04-15T10:24:12;99089.75;;;22.71;48.75
65013;BME280;51715;39.432;-77.518;2023-04-15T10:26:42;99086.27;;;23.09;48.23
65013;BME280;51715;39.432;-77.518;2023-04-15T10:29:12;99088.18;;;22.80;48.42
65013;BME280;51715;39.432;-77.518;2023-04-15T10:31:41;99094.61;;;23.09;48.07
65013;BME280;51715;39.432;-77.518;2023-04-15T10:34:10;99097.59;;;23.09;48.04
65013;BME280;51715;39.432;-77.518;2023-04-15T10:36:39;99094.96;;;23.50;47.83
65013;BME280;51715;39.432;-77.518;2023-04-15T10:39:38;99095.45;;;23.34;47.62
65013;BME280;51715;39.432;-77.518;2023-04-15T10:42:14;99101.26;;;23.54;47.37
65013;BME280;51715;39.432;-77.518;2023-04-15T10:44:47;99100.94;;;23.10;47.72
65013;BME280;51715;39.432;-77.518;2023-04-15T10:47:18;99106.46;;;23.45;47.47
65013;BME280;51715;39.432;-77.518;2023-04-15T10:49:48;99107.76;;;23.28;47.42
65013;BME280;51715;39.432;-77.518;2023-04-15T10:52:24;99105.86;;;23.58;47.72
65013;BME280;51715;39.432;-77.518;2023-04-15T10:55:02;99104.37;;;23.48;47.49
65013;BME280;51715;39.432;-77.518;2023-04-15T10:57:36;99110.23;;;23.39;47.49
65013;BME280;51715;39.432;-77.518;2023-04-15T11:00:14;99110.78;;;23.36;47.68
65013;BME280;51715;39.432;-77.518;2023-04-15T11:02:44;99108.26;;;23.28;47.74
65013;BME280;51715;39.432;-77.518;2023-04-15T11:05:13;99110.84;;;23.40;47.54
65013;BME280;51715;39.432;-77.518;2023-04-15T11:07:50;99116.40;;;23.50;47.31
65013;BME280;51715;39.432;-77.518;2023-04-15T11:10:52;99119.30;;;23.53;47.42
65013;BME280;51715;39.432;-77.518;2023-04-15T11:13:23;99119.64;;;23.70;47.35
65013;BME280;51715;39.432;-77.518;2023-04-15T11:15:57;99115.43;;;23.60;47.27
65013;BME280;51715;39.432;-77.518;2023-04-15T11:18:27;99114.11;;;23.75;47.23
65013;BME280;51715;39.432;-77.518;2023-04-15T11:20:57;99116.15;;;23.55;47.45
65013;BME280;51715;39.432;-77.518;2023-04-15T11:23:30;99117.01;;;23.71;47.35
65013;BME280;51715;39.432;-77.518;2023-04-15T11:26:01;99118.60;;;23.62;47.33
65013;BME280;51715;39.432;-77.518;2023-04-15T11:28:31;99119.78;;;23.70;47.39
65013;BME280;51715;39.432;-77.518;2023-04-15T11:31:07;99120.62;;;23.59;47.29
65013;BME280;51715;39.432;-77.518;2023-04-15T11:33:36;99123.57;;;23.67;47.44
65013;BME280;51715;39.432;-77.518;2023-04-15T11:36:04;99128.68;;;23.70;47.61
65013;BME280;51715;39.432;-77.518;2023-04-15T11:38:34;99126.89;;;23.06;48.54
65013;BME280;51715;39.432;-77.518;2023-04-15T11:41:04;99126.61;;;23.55;47.98
65013;BME280;51715;39.432;-77.518;2023-04-15T11:43:33;99128.32;;;23.58;47.57
65013;BME280;51715;39.432;-77.518;2023-04-15T11:46:02;99132.25;;;23.89;47.55
65013;BME280;51715;39.432;-77.518;2023-04-15T11:48:32;99136.58;;;23.72;47.28
65013;BME280;51715;39.432;-77.518;2023-04-15T11:51:03;99139.28;;;23.79;47.08
65013;BME280;51715;39.432;-77.518;2023-04-15T11:53:40;99143.59;;;23.85;47.25
65013;BME280;51715;39.432;-77.518;2023-04-15T11:56:15;99145.65;;;23.97;47.21
65013;BME280;51715;39.432;-77.518;2023-04-15T11:58:43;99152.23;;;24.00;47.12
65013;BME280;51715;39.432;-77.518;2023-04-15T12:01:12;99153.92;;;23.93;46.91
65013;BME280;51715;39.432;-77.518;2023-04-15T12:03:42;99159.07;;;23.65;47.08
65013;BME280;51715;39.432;-77.518;2023-04-15T12:06:15;99161.29;;;23.97;46.65
65013;BME280;51715;39.432;-77.518;2023-04-15T12:08:55;99158.75;;;24.11;46.58
65013;BME280;51715;39.432;-77.518;2023-04-15T12:11:30;99161.59;;;24.34;46.56
65013;BME280;51715;39.432;-77.518;2023-04-15T12:14:02;99162.08;;;23.91;46.64
65013;BME280;51715;39.432;-77.518;2023-04-15T12:16:32;99160.25;;;24.31;46.07
65013;BME280;51715;39.432;-77.518;2023-04-15T12:19:05;99160.94;;;24.36;45.74
65013;BME280;51715;39.432;-77.518;2023-04-15T12:21:35;99163.15;;;24.57;45.59
65013;BME280;51715;39.432;-77.518;2023-04-15T12:24:08;99166.09;;;24.36;45.53
65013;BME280;51715;39.432;-77.518;2023-04-15T12:26:42;99164.51;;;24.23;45.91
65013;BME280;51715;39.432;-77.518;2023-04-15T12:29:13;99164.54;;;24.25;45.90
65013;BME280;51715;39.432;-77.518;2023-04-15T12:31:50;99165.41;;;23.99;45.71
65013;BME280;51715;39.432;-77.518;2023-04-15T12:34:28;99165.41;;;24.34;45.84
65013;BME280;51715;39.432;-77.518;2023-04-15T12:36:57;99164.49;;;24.63;46.35
65013;BME280;51715;39.432;-77.518;2023-04-15T12:39:28;99164.69;;;24.41;45.56
65013;BME280;51715;39.432;-77.518;2023-04-15T12:41:56;99160.32;;;24.56;45.23
65013;BME280;51715;39.432;-77.518;2023-04-15T12:44:25;99157.86;;;24.56;45.99
65013;BME280;51715;39.432;-77.518;2023-04-15T12:46:55;99160.26;;;24.79;45.84
65013;BME280;51715;39.432;-77.518;2023-04-15T12:49:23;99155.97;;;25.00;45.14
65013;BME280;51715;39.432;-77.518;2023-04-15T12:51:54;99158.98;;;25.15;44.48
65013;BME280;51715;39.432;-77.518;2023-04-15T12:54:23;99162.23;;;25.33;43.82